Time;durP1;ratioP1;P1;durP2;ratioP2;P2;SDS_P1;SDS_P2;PMS_P1;PMS_P2;Temp;Humidity;BMP_temperature;BMP_pressure;BME280_temperature;BME280_humidity;BME280_pressure;Samples;Min_cycle;Max_cycle;Signal;HPM_P1;HPM_P2
2021/01/31 00:00:28;;;;;;;94.87;36.33;;;;;;;-4.04;77.17;97936.63;123983;1099;64945;-84
2021/01/31 00:03:18;;;;;;;87.40;32.60;;;;;;;-4.19;77.51;97941.43;123902;1099;64892;-86
2021/01/31 00:05:45;;;;;;;88.07;34.07;;;;;;;-4.30;77.60;97945.27;123929;1099;64924;-89
2021/01/31 00:08:14;;;;;;;84.70;32.37;;;;;;;-4.37;77.83;97942.84;123889;1102;64915;-87
2021/01/31 00:10:42;;;;;;;90.17;34.53;;;;;;;-4.48;77.71;97947.52;123903;1102;64979;-86
2021/01/31 00:13:11;;;;;;;85.27;32.73;;;;;;;-4.65;77.36;97952.35;124150;1099;64911;-88
2021/01/31 00:15:40;;;;;;;94.47;38.13;;;;;;;-4.83;77.37;97955.51;124158;1099;64921;-86
2021/01/31 00:18:08;;;;;;;101.03;38.63;;;;;;;-4.84;77.81;97956.38;124104;1099;64972;-87
2021/01/31 00:20:38;;;;;;;99.23;39.07;;;;;;;-4.98;77.46;97954.16;124183;1099;65451;-89
2021/01/31 00:23:06;;;;;;;95.15;34.20;;;;;;;-5.17;76.98;97959.87;124182;1099;65288;-87
2021/01/31 00:25:33;;;;;;;96.77;37.33;;;;;;;-5.37;77.13;97959.55;123870;1099;64949;-87
2021/01/31 00:27:59;;;;;;;108.63;37.17;;;;;;;-5.43;77.32;97962.30;123941;1099;64879;-85
2021/01/31 00:30:35;;;;;;;98.50;38.20;;;;;;;-5.48;77.53;97967.62;123872;1099;64975;-90
2021/01/31 00:33:05;;;;;;;95.73;35.43;;;;;;;-5.53;77.28;97968.66;124103;1099;64950;-86
2021/01/31 00:35:33;;;;;;;78.37;32.20;;;;;;;-5.61;77.44;97968.81;123963;1099;64975;-86
2021/01/31 00:37:59;;;;;;;80.57;32.33;;;;;;;-5.65;77.98;97969.81;123977;1099;65339;-86
2021/01/31 00:40:26;;;;;;;95.85;38.35;;;;;;;-5.71;77.22;97968.21;123946;1101;64956;-90
2021/01/31 00:42:53;;;;;;;85.85;32.90;;;;;;;-5.77;77.81;97964.91;123916;1100;65075;-87
2021/01/31 00:45:23;;;;;;;81.93;30.43;;;;;;;-5.89;77.05;97962.59;123904;1102;64982;-86
2021/01/31 00:47:49;;;;;;;73.43;26.40;;;;;;;-5.92;77.49;97953.14;123880;1102;64975;-86
2021/01/31 00:50:19;;;;;;;64.30;25.73;;;;;;;-5.96;77.66;97951.53;123912;1102;64921;-89
2021/01/31 00:52:45;;;;;;;57.00;22.77;;;;;;;-5.99;77.89;97956.78;123952;1099;64898;-87
2021/01/31 00:55:13;;;;;;;43.23;19.57;;;;;;;-6.00;77.67;97955.93;124089;1099;65003;-86
2021/01/31 00:57:41;;;;;;;48.57;19.57;;;;;;;-5.97;77.41;97949.82;123902;1099;64950;-86
2021/01/31 01:00:16;;;;;;;43.43;19.70;;;;;;;-6.02;77.35;97951.67;123903;1099;64969;-87
2021/01/31 01:02:43;;;;;;;47.30;21.57;;;;;;;-6.06;77.65;97950.02;123891;1100;64936;-87
2021/01/31 01:05:11;;;;;;;58.80;25.17;;;;;;;-6.01;78.04;97949.03;123843;1102;64908;-90
2021/01/31 01:07:38;;;;;;;63.20;24.20;;;;;;;-6.04;78.14;97943.06;123891;1102;65161;-87
2021/01/31 01:10:07;;;;;;;59.77;23.67;;;;;;;-6.09;77.50;97952.70;123845;1099;65292;-88
2021/01/31 01:12:34;;;;;;;77.53;29.17;;;;;;;-6.21;77.48;97952.98;123920;1099;64879;-86
2021/01/31 01:15:01;;;;;;;86.23;31.43;;;;;;;-6.31;77.82;97947.98;123888;1102;64898;-87
2021/01/31 01:17:27;;;;;;;71.80;29.20;;;;;;;-6.34;77.40;97961.06;124102;1099;65405;-90
2021/01/31 01:19:54;;;;;;;81.10;30.68;;;;;;;-6.41;77.66;97954.30;123884;1098;64840;-87
2021/01/31 01:22:20;;;;;;;78.53;27.93;;;;;;;-6.52;77.74;97958.00;123995;1099;65074;-86
2021/01/31 01:24:52;;;;;;;66.63;24.07;;;;;;;-6.58;77.57;97956.39;123885;1099;64901;-86
2021/01/31 01:27:20;;;;;;;65.17;24.77;;;;;;;-6.60;78.25;97963.37;123907;1099;64924;-86
2021/01/31 01:29:48;;;;;;;64.90;26.90;;;;;;;-6.60;78.27;97960.77;123947;1099;64975;-90
2021/01/31 01:32:15;;;;;;;71.57;26.57;;;;;;;-6.59;77.56;97965.08;123914;1102;64869;-87
2021/01/31 01:34:42;;;;;;;67.87;25.33;;;;;;;-6.68;77.35;97963.53;124257;1099;64937;-87
2021/01/31 01:37:11;;;;;;;67.53;26.23;;;;;;;-6.83;76.66;97967.28;124145;1099;64888;-90
2021/01/31 01:39:37;;;;;;;63.47;24.60;;;;;;;-6.95;77.11;97966.67;123975;1099;65355;-87
2021/01/31 01:42:11;;;;;;;61.93;23.93;;;;;;;-6.99;77.24;97962.45;123870;1102;64917;-86
2021/01/31 01:44:39;;;;;;;58.37;24.07;;;;;;;-6.99;77.47;97959.84;123900;1099;64927;-89
2021/01/31 01:47:16;;;;;;;76.37;23.93;;;;;;;-6.94;78.37;97965.78;124004;1099;64882;-91
2021/01/31 01:49:47;;;;;;;72.90;24.60;;;;;;;-6.82;78.36;97962.94;123947;1102;64956;-87
2021/01/31 01:52:32;;;;;;;58.50;23.03;;;;;;;-6.80;77.39;97966.38;123902;1100;64911;-88
2021/01/31 01:55:03;;;;;;;75.72;27.15;;;;;;;-6.86;78.05;97961.31;123952;1099;64921;-87
2021/01/31 01:57:36;;;;;;;83.07;31.10;;;;;;;-6.97;77.55;97958.92;123896;1102;64793;-87
2021/01/31 02:00:06;;;;;;;63.57;25.67;;;;;;;-7.09;77.53;97957.42;124133;1099;64987;-89
2021/01/31 02:02:40;;;;;;;83.43;31.50;;;;;;;-7.16;77.49;97965.35;124190;1099;64937;-85
2021/01/31 02:05:13;;;;;;;85.53;32.45;;;;;;;-7.13;77.19;97965.28;123903;1099;64940;-87
2021/01/31 02:07:39;;;;;;;87.53;31.60;;;;;;;-7.16;78.06;97973.14;124112;1099;65261;-86
2021/01/31 02:10:08;;;;;;;75.13;30.10;;;;;;;-7.24;77.61;97972.44;123915;1102;64894;-89
2021/01/31 02:12:35;;;;;;;84.77;29.17;;;;;;;-7.18;78.35;97978.36;124141;1099;64949;-88
2021/01/31 02:15:05;;;;;;;79.13;30.23;;;;;;;-7.10;77.48;97973.02;123921;1099;64879;-86
2021/01/31 02:17:43;;;;;;;82.90;31.20;;;;;;;-7.04;77.45;97974.65;123928;1099;65035;-86
2021/01/31 02:20:32;;;;;;;94.75;31.65;;;;;;;-7.07;77.03;97976.39;124078;1099;64834;-89
2021/01/31 02:23:40;;;;;;;75.20;29.47;;;;;;;-7.10;77.52;97973.02;123882;1099;64949;-90
2021/01/31 02:26:14;;;;;;;78.47;32.60;;;;;;;-6.93;77.72;97981.34;123804;1102;64958;-87
2021/01/31 02:29:02;;;;;;;78.83;30.25;;;;;;;-6.65;78.89;97967.80;123794;1102;65104;-86
2021/01/31 02:31:57;;;;;;;80.00;30.00;;;;;;;-6.54;77.39;97963.23;123864;1102;65533;-90
2021/01/31 02:34:47;;;;;;;71.53;29.23;;;;;;;-6.46;77.94;97966.52;123838;1102;64915;-87
2021/01/31 02:37:38;;;;;;;74.70;27.73;;;;;;;-6.36;78.40;97965.44;123841;1102;64879;-87
2021/01/31 02:40:14;;;;;;;77.30;29.63;;;;;;;-6.29;77.11;97974.80;123824;1102;64984;-87
2021/01/31 02:43:05;;;;;;;63.10;25.45;;;;;;;-6.32;77.28;97974.00;123845;1102;65112;-86
2021/01/31 02:45:40;;;;;;;64.57;25.33;;;;;;;-6.37;77.33;97976.69;123941;1102;65095;-86
2021/01/31 02:48:09;;;;;;;66.35;25.45;;;;;;;-6.47;77.19;97982.99;123914;1102;64883;-89
2021/01/31 02:50:41;;;;;;;53.73;23.63;;;;;;;-6.55;77.45;97988.36;123855;1102;65064;-90
2021/01/31 02:53:16;;;;;;;53.33;21.90;;;;;;;-6.52;77.54;97987.42;123882;1101;64897;-89
2021/01/31 02:56:05;;;;;;;48.83;21.67;;;;;;;-6.44;76.91;97990.70;123476;1102;64993;-87
2021/01/31 02:58:40;;;;;;;52.57;22.40;;;;;;;-6.37;77.37;97981.89;123848;1102;64895;-86
2021/01/31 03:01:13;;;;;;;51.07;22.17;;;;;;;-6.32;76.89;97995.64;123906;1102;64997;-87
2021/01/31 03:03:48;;;;;;;53.33;22.13;;;;;;;-6.29;77.96;97990.39;123777;1099;65024;-86
2021/01/31 03:06:28;;;;;;;50.43;22.03;;;;;;;-6.19;77.74;97996.23;123932;1099;64946;-86
2021/01/31 03:09:03;;;;;;;52.83;22.80;;;;;;;-6.20;77.68;97998.87;123883;1102;64892;-86
2021/01/31 03:11:39;;;;;;;53.67;23.03;;;;;;;-6.27;77.84;97999.00;124088;1099;64994;-88
2021/01/31 03:14:20;;;;;;;65.83;25.37;;;;;;;-6.24;77.75;97997.21;123918;1099;64972;-87
2021/01/31 03:16:53;;;;;;;64.10;27.77;;;;;;;-6.18;78.23;98002.28;124072;1099;65026;-89
2021/01/31 03:19:45;;;;;;;62.23;26.63;;;;;;;-6.10;78.30;97996.04;123970;1099;65000;-90
2021/01/31 03:22:26;;;;;;;68.20;26.17;;;;;;;-6.09;77.44;97996.89;124126;1099;64983;-86
2021/01/31 03:25:00;;;;;;;66.50;27.00;;;;;;;-6.06;77.45;98002.00;123866;1102;64918;-87
2021/01/31 03:27:38;;;;;;;64.20;27.37;;;;;;;-6.09;77.17;98002.94;123991;1102;64972;-87
2021/01/31 03:30:07;;;;;;;66.77;26.43;;;;;;;-6.16;77.61;98006.57;123874;1102;64923;-87
2021/01/31 03:32:41;;;;;;;65.97;26.97;;;;;;;-6.09;77.34;97995.14;124139;1099;64927;-89
2021/01/31 03:35:19;;;;;;;62.90;25.92;;;;;;;-6.13;76.75;98001.29;123918;1102;64935;-87
2021/01/31 03:37:53;;;;;;;74.43;28.87;;;;;;;-6.28;77.52;98010.28;123911;1099;64927;-87
2021/01/31 03:40:23;;;;;;;76.60;28.00;;;;;;;-6.19;77.48;98019.61;123937;1102;64940;-88
2021/01/31 03:42:50;;;;;;;71.77;28.57;;;;;;;-6.17;77.97;98012.66;123873;1099;65016;-89
2021/01/31 03:45:26;;;;;;;77.13;27.20;;;;;;;-6.22;77.24;98027.48;123887;1099;64885;-87
2021/01/31 03:48:07;;;;;;;70.83;27.20;;;;;;;-6.21;76.91;98017.95;123910;1100;64931;-87
2021/01/31 03:50:34;;;;;;;69.40;25.90;;;;;;;-6.21;76.74;98017.95;123880;1102;65029;-87
2021/01/31 03:53:01;;;;;;;73.45;30.50;;;;;;;-6.30;76.85;98016.38;124115;1099;64934;-86
2021/01/31 03:55:27;;;;;;;72.70;26.90;;;;;;;-6.18;77.16;98016.12;123860;1102;64971;-87
2021/01/31 03:57:59;;;;;;;78.73;29.60;;;;;;;-6.26;76.56;98008.50;123894;1102;64924;-86
2021/01/31 04:00:30;;;;;;;90.30;32.45;;;;;;;-6.34;76.86;98013.02;123925;1102;64946;-87
2021/01/31 04:03:08;;;;;;;86.10;31.90;;;;;;;-6.44;76.95;98011.48;123866;1099;64973;-88
2021/01/31 04:05:40;;;;;;;87.47;31.77;;;;;;;-6.40;76.75;98018.34;123930;1102;64899;-87
2021/01/31 04:08:11;;;;;;;75.70;27.90;;;;;;;-6.44;76.75;98011.48;123906;1099;65084;-89
2021/01/31 04:10:42;;;;;;;83.67;30.00;;;;;;;-6.45;77.48;98014.98;123926;1099;65378;-87
2021/01/31 04:13:10;;;;;;;77.33;30.30;;;;;;;-6.42;77.09;98014.92;123922;1099;64883;-86
2021/01/31 04:15:47;;;;;;;76.90;28.50;;;;;;;-6.37;77.11;98012.21;123927;1102;64949;-89
2021/01/31 04:18:15;;;;;;;85.15;30.20;;;;;;;-6.37;76.96;98014.80;123913;1099;64985;-87
2021/01/31 04:20:42;;;;;;;81.13;29.47;;;;;;;-6.42;77.19;98014.92;123847;1099;65042;-86
2021/01/31 04:23:09;;;;;;;79.53;28.20;;;;;;;-6.48;77.50;98024.59;123889;1099;64953;-88
2021/01/31 04:25:35;;;;;;;84.20;29.90;;;;;;;-6.57;77.13;98025.61;123781;1102;64878;-86
2021/01/31 04:28:11;;;;;;;90.10;30.20;;;;;;;-6.63;77.20;98021.39;123898;1099;64863;-86
2021/01/31 04:30:40;;;;;;;85.93;28.03;;;;;;;-6.65;77.05;98033.56;123884;1102;64904;-88
2021/01/31 04:33:07;;;;;;;81.50;28.37;;;;;;;-6.91;75.29;98041.86;124106;1099;65004;-87
2021/01/31 04:35:34;;;;;;;92.53;30.77;;;;;;;-7.16;76.42;98031.06;123925;1102;64908;-86
2021/01/31 04:38:01;;;;;;;84.23;30.30;;;;;;;-7.17;76.39;98039.73;123775;1099;64911;-85
2021/01/31 04:40:29;;;;;;;91.40;32.27;;;;;;;-7.12;77.23;98039.66;123840;1102;65273;-85
2021/01/31 04:42:56;;;;;;;84.53;29.80;;;;;;;-7.10;77.14;98041.34;123849;1099;65864;-89
2021/01/31 04:45:24;;;;;;;93.55;31.70;;;;;;;-7.12;77.39;98048.30;123805;1102;65068;-86
2021/01/31 04:48:11;;;;;;;83.73;29.53;;;;;;;-7.10;76.52;98041.34;123874;1099;65017;-88
2021/01/31 04:50:50;;;;;;;78.83;29.77;;;;;;;-7.08;76.93;98043.89;123912;1102;64892;-86
2021/01/31 04:53:43;;;;;;;84.97;31.50;;;;;;;-7.19;76.48;98045.81;124115;1099;64911;-87
2021/01/31 04:56:24;;;;;;;101.63;31.27;;;;;;;-7.16;77.02;98045.78;123915;1102;64879;-92
2021/01/31 04:58:55;;;;;;;96.10;31.87;;;;;;;-7.16;76.29;98056.16;124097;1099;64978;-87
2021/01/31 05:01:26;;;;;;;94.20;31.20;;;;;;;-7.19;76.84;98061.38;123921;1099;64917;-86
2021/01/31 05:04:00;;;;;;;94.40;30.27;;;;;;;-7.30;76.37;98053.81;124178;1098;65017;-85
2021/01/31 05:06:33;;;;;;;90.60;30.97;;;;;;;-7.40;76.96;98052.23;123925;1102;65096;-88
2021/01/31 05:09:01;;;;;;;91.93;31.77;;;;;;;-7.25;77.41;98061.48;123927;1099;64901;-91
2021/01/31 05:11:33;;;;;;;98.50;31.57;;;;;;;-7.18;77.26;98058.79;123932;1099;64981;-87
2021/01/31 05:14:04;;;;;;;83.75;29.70;;;;;;;-7.13;76.95;98063.88;123831;1099;64899;-87
2021/01/31 05:16:31;;;;;;;86.40;30.43;;;;;;;-7.21;76.50;98060.56;123909;1099;64898;-86
2021/01/31 05:19:13;;;;;;;110.47;32.83;;;;;;;-7.37;76.42;98065.17;123904;1099;64962;-86
2021/01/31 05:21:40;;;;;;;102.35;33.50;;;;;;;-7.41;76.10;98066.94;124132;1099;64888;-90
2021/01/31 05:24:16;;;;;;;99.43;31.97;;;;;;;-7.34;76.44;98072.89;123868;1099;65038;-88
2021/01/31 05:26:50;;;;;;;100.80;32.63;;;;;;;-7.41;76.34;98072.13;124126;1099;64987;-85
2021/01/31 05:29:22;;;;;;;98.30;34.55;;;;;;;-7.50;76.87;98077.48;124075;1099;65023;-87
2021/01/31 05:31:56;;;;;;;117.43;34.83;;;;;;;-7.50;76.72;98080.07;123924;1099;64987;-89
2021/01/31 05:34:40;;;;;;;105.58;33.85;;;;;;;-7.47;77.26;98081.75;123967;1100;65017;-85
2021/01/31 05:37:14;;;;;;;109.33;35.10;;;;;;;-7.30;77.69;98079.75;123852;1099;65000;-88
2021/01/31 05:39:46;;;;;;;113.23;38.80;;;;;;;-7.27;77.06;98081.42;123945;1099;64972;-86
2021/01/31 05:42:26;;;;;;;125.73;38.73;;;;;;;-7.37;76.17;98078.14;123931;1102;65055;-86
2021/01/31 05:45:07;;;;;;;109.93;34.83;;;;;;;-7.37;77.18;98080.73;123927;1102;64866;-85
2021/01/31 05:47:43;;;;;;;94.83;29.60;;;;;;;-7.38;76.85;98081.59;124077;1098;64886;-87
2021/01/31 05:50:28;;;;;;;96.17;30.13;;;;;;;-7.40;77.31;98083.36;123909;1099;64859;-87
2021/01/31 05:52:55;;;;;;;93.67;31.90;;;;;;;-7.38;76.64;98082.47;124129;1099;64934;-88
2021/01/31 05:55:30;;;;;;;87.67;28.53;;;;;;;-7.33;77.36;98086.70;123916;1099;65323;-86
2021/01/31 05:58:18;;;;;;;75.20;24.97;;;;;;;-7.33;77.07;98082.38;123935;1102;64927;-86
2021/01/31 06:00:47;;;;;;;53.13;21.43;;;;;;;-7.37;77.33;98084.18;123880;1102;65353;-87
2021/01/31 06:03:20;;;;;;;54.47;19.77;;;;;;;-7.27;77.85;98086.61;123919;1101;64998;-85
2021/01/31 06:05:47;;;;;;;63.63;21.43;;;;;;;-7.17;77.59;98093.37;123913;1099;64899;-88
2021/01/31 06:08:28;;;;;;;81.37;29.33;;;;;;;-7.23;77.26;98093.47;124120;1099;65023;-87
2021/01/31 06:11:04;;;;;;;91.47;29.47;;;;;;;-7.20;76.93;98091.66;123952;1102;64974;-87
2021/01/31 06:13:31;;;;;;;89.63;31.77;;;;;;;-7.24;76.89;98089.17;123841;1099;64841;-89
2021/01/31 06:16:02;;;;;;;99.15;29.30;;;;;;;-7.16;77.24;98093.34;123926;1102;64926;-89
2021/01/31 06:18:34;;;;;;;87.30;27.10;;;;;;;-7.15;77.36;98097.64;124137;1099;64864;-87
2021/01/31 06:21:17;;;;;;;77.43;28.53;;;;;;;-7.13;77.21;98102.80;123877;1102;64912;-86
2021/01/31 06:23:51;;;;;;;78.37;28.07;;;;;;;-6.97;77.76;98104.26;123906;1099;65017;-87
2021/01/31 06:26:26;;;;;;;77.67;26.70;;;;;;;-6.98;77.19;98099.95;123936;1102;64908;-87
2021/01/31 06:28:58;;;;;;;80.70;25.70;;;;;;;-6.99;76.47;98106.03;123908;1102;65007;-86
2021/01/31 06:31:33;;;;;;;69.53;22.13;;;;;;;-7.17;76.67;98108.94;124151;1097;65007;-88
2021/01/31 06:34:00;;;;;;;101.55;42.60;;;;;;;-7.48;76.68;98112.02;123886;1099;65037;-88
2021/01/31 06:36:39;;;;;;;100.83;46.90;;;;;;;-7.54;76.54;98111.25;123920;1102;64847;-87
2021/01/31 06:39:51;;;;;;;101.33;40.13;;;;;;;-7.64;76.90;98119.14;124126;1099;64921;-88
2021/01/31 06:42:56;;;;;;;112.65;41.55;;;;;;;-7.82;76.51;98126.36;123468;1102;65136;-88
2021/01/31 06:45:30;;;;;;;109.97;41.77;;;;;;;-7.94;76.71;98127.38;123807;1102;64915;-87
2021/01/31 06:48:26;;;;;;;104.37;37.90;;;;;;;-8.05;76.12;98130.09;123468;1102;64895;-86
2021/01/31 06:51:20;;;;;;;124.90;40.73;;;;;;;-8.12;76.45;98125.87;123812;1102;65030;-87
2021/01/31 06:53:59;;;;;;;124.47;41.83;;;;;;;-8.16;76.48;98135.41;123845;1102;65059;-87
2021/01/31 06:57:03;;;;;;;114.77;39.43;;;;;;;-8.22;77.03;98138.06;123453;1102;65107;-87
2021/01/31 06:59:54;;;;;;;103.70;37.23;;;;;;;-8.29;76.04;98144.20;123827;1102;64841;-89
2021/01/31 07:02:48;;;;;;;107.17;38.57;;;;;;;-8.23;77.02;98140.68;123469;1102;65000;-88
2021/01/31 07:05:50;;;;;;;83.07;29.30;;;;;;;-8.45;75.76;98143.56;123829;1102;64982;-87
2021/01/31 07:08:22;;;;;;;112.63;36.70;;;;;;;-8.65;76.42;98144.62;123408;1105;64982;-86
2021/01/31 07:11:28;;;;;;;108.43;39.80;;;;;;;-8.71;76.67;98148.16;123412;1105;65088;-86
2021/01/31 07:14:06;;;;;;;107.57;39.47;;;;;;;-8.66;75.86;98155.86;123055;1109;65119;-87
2021/01/31 07:16:41;;;;;;;102.70;38.27;;;;;;;-8.55;76.83;98160.06;123204;1108;65050;-84
2021/01/31 07:19:22;;;;;;;100.27;39.80;;;;;;;-8.38;77.28;98161.63;123212;1105;65077;-87
2021/01/31 07:21:55;;;;;;;117.50;40.10;;;;;;;-8.20;77.02;98164.83;123409;1105;66542;-87
2021/01/31 07:24:53;;;;;;;93.30;32.23;;;;;;;-7.98;77.11;98160.23;123173;1105;65119;-87
2021/01/31 07:27:45;;;;;;;72.80;26.93;;;;;;;-7.71;76.84;98156.41;123118;1105;65010;-89
2021/01/31 07:30:31;;;;;;;66.80;24.20;;;;;;;-7.43;76.92;98163.82;123227;1105;65027;-86
2021/01/31 07:33:10;;;;;;;61.23;23.90;;;;;;;-7.17;77.10;98161.68;123170;1104;64965;-86
2021/01/31 07:36:01;;;;;;;51.43;22.67;;;;;;;-6.89;77.61;98164.67;123316;1105;65218;-87
2021/01/31 07:39:00;;;;;;;60.30;24.03;;;;;;;-6.61;76.61;98156.42;123359;1105;65093;-89
2021/01/31 07:41:28;;;;;;;57.30;24.27;;;;;;;-6.46;76.51;98165.66;123262;1105;64985;-86
2021/01/31 07:44:14;;;;;;;54.33;23.27;;;;;;;-6.30;76.80;98161.88;123442;1105;65385;-87
2021/01/31 07:46:40;;;;;;;41.40;16.30;;;;;;;-6.17;76.63;98159.90;123414;1105;64927;-87
2021/01/31 07:49:07;;;;;;;49.97;20.40;;;;;;;-6.06;76.40;98158.80;123395;1102;65356;-88
2021/01/31 07:51:37;;;;;;;57.67;21.30;;;;;;;-5.92;76.27;98155.92;123874;1099;65516;-86
2021/01/31 07:54:31;;;;;;;56.50;22.83;;;;;;;-5.75;76.11;98152.94;124158;1099;64966;-85
2021/01/31 07:57:37;;;;;;;62.60;23.65;;;;;;;-5.67;76.58;98157.97;123841;1099;64926;-89
2021/01/31 08:00:36;;;;;;;69.73;26.53;;;;;;;-5.47;76.50;98163.59;123831;1099;64917;-88
2021/01/31 08:03:29;;;;;;;65.27;24.80;;;;;;;-5.26;76.50;98159.67;123870;1099;64985;-85
2021/01/31 08:06:00;;;;;;;59.50;22.90;;;;;;;-5.10;75.96;98162.75;123796;1099;65275;-86
2021/01/31 08:08:42;;;;;;;53.57;20.83;;;;;;;-5.16;76.01;98164.60;123821;1102;64886;-88
2021/01/31 08:11:18;;;;;;;45.93;19.90;;;;;;;-5.17;75.78;98168.10;123780;1099;64924;-90
2021/01/31 08:13:50;;;;;;;53.07;21.70;;;;;;;-5.07;76.10;98167.91;123907;1099;65349;-86
2021/01/31 08:16:38;;;;;;;56.13;20.77;;;;;;;-4.96;76.20;98166.76;124016;1102;64854;-85
2021/01/31 08:19:12;;;;;;;50.65;21.35;;;;;;;-4.77;76.45;98168.88;124314;1098;64921;-86
2021/01/31 08:22:09;;;;;;;61.73;22.53;;;;;;;-4.64;76.78;98155.53;124067;1102;64914;-84
2021/01/31 08:24:58;;;;;;;49.20;20.53;;;;;;;-4.49;76.26;98156.02;123969;1099;64918;-86
2021/01/31 08:27:37;;;;;;;52.40;23.63;;;;;;;-4.32;76.57;98155.59;124289;1099;64835;-86
2021/01/31 08:30:13;;;;;;;55.20;22.77;;;;;;;-4.19;76.26;98156.97;124175;1099;64850;-86
2021/01/31 08:32:58;;;;;;;46.37;20.37;;;;;;;-4.04;76.74;98153.92;124309;1099;64914;-85
2021/01/31 08:35:39;;;;;;;37.67;17.40;;;;;;;-3.84;76.64;98153.34;124296;1099;64931;-84
2021/01/31 08:38:28;;;;;;;31.67;16.53;;;;;;;-3.70;76.10;98148.58;124283;1099;64862;-86
2021/01/31 08:41:01;;;;;;;34.93;17.30;;;;;;;-3.58;76.11;98150.83;124300;1098;65338;-85
2021/01/31 08:43:35;;;;;;;40.63;19.43;;;;;;;-3.43;75.90;98159.12;123917;1099;64943;-86
2021/01/31 08:46:35;;;;;;;73.33;30.37;;;;;;;-3.38;75.86;98155.44;124082;1099;65001;-84
2021/01/31 08:49:14;;;;;;;81.63;32.73;;;;;;;-3.37;75.64;98165.01;123900;1102;64953;-86
2021/01/31 08:51:54;;;;;;;66.20;27.57;;;;;;;-3.37;75.94;98165.01;123909;1099;64897;-84
2021/01/31 08:54:22;;;;;;;76.93;32.43;;;;;;;-3.35;75.27;98164.95;123936;1099;64910;-85
2021/01/31 08:56:53;;;;;;;41.53;18.27;;;;;;;-3.27;75.25;98160.34;123926;1099;65240;-86
2021/01/31 08:59:28;;;;;;;29.77;15.23;;;;;;;-3.13;76.05;98146.84;123910;1099;65023;-88
2021/01/31 09:02:15;;;;;;;82.17;29.27;;;;;;;-3.04;75.56;98157.02;124122;1099;64921;-84
2021/01/31 09:05:09;;;;;;;62.27;24.40;;;;;;;-2.85;75.50;98157.28;124071;1099;65058;-85
2021/01/31 09:07:38;;;;;;;48.85;20.80;;;;;;;-2.62;76.64;98156.50;123932;1099;64896;-85
2021/01/31 09:10:37;;;;;;;49.45;21.00;;;;;;;-2.43;75.35;98157.59;124179;1099;64865;-88
2021/01/31 09:13:24;;;;;;;51.27;22.93;;;;;;;-2.33;75.90;98152.91;124082;1099;65017;-86
2021/01/31 09:15:52;;;;;;;55.77;21.43;;;;;;;-2.25;75.39;98150.88;124152;1099;65292;-86
2021/01/31 09:18:24;;;;;;;46.43;20.60;;;;;;;-2.10;76.00;98155.58;123924;1099;65068;-86
2021/01/31 09:20:51;;;;;;;59.45;25.10;;;;;;;-2.05;75.23;98153.63;123891;1099;64975;-85
2021/01/31 09:23:33;;;;;;;49.13;22.37;;;;;;;-1.95;75.89;98149.78;123936;1099;64944;-88
2021/01/31 09:26:01;;;;;;;45.33;21.60;;;;;;;-1.92;75.58;98154.05;123884;1099;64991;-86
2021/01/31 09:28:28;;;;;;;47.80;21.77;;;;;;;-1.86;75.87;98153.82;123989;1099;64921;-87
2021/01/31 09:30:58;;;;;;;55.15;23.15;;;;;;;-1.83;75.47;98160.73;123969;1101;65240;-86
2021/01/31 09:33:38;;;;;;;55.13;26.37;;;;;;;-1.88;75.44;98154.80;123967;1099;64911;-84
2021/01/31 09:36:19;;;;;;;59.60;28.90;;;;;;;-1.85;75.10;98154.67;124177;1099;64997;-84
2021/01/31 09:38:47;;;;;;;57.30;25.20;;;;;;;-1.73;75.75;98159.45;123873;1099;64994;-85
2021/01/31 09:41:16;;;;;;;61.33;26.90;;;;;;;-1.68;75.13;98145.30;123861;1099;64978;-84
2021/01/31 09:43:45;;;;;;;165.87;58.90;;;;;;;-1.56;74.91;98146.60;124020;1100;65352;-86
2021/01/31 09:46:15;;;;;;;184.93;67.03;;;;;;;-1.45;74.62;98144.44;124001;1099;64892;-84
2021/01/31 09:48:42;;;;;;;95.85;43.85;;;;;;;-1.43;75.13;98137.36;123986;1099;64894;-85
2021/01/31 09:51:23;;;;;;;91.10;41.50;;;;;;;-1.25;75.39;98148.05;123992;1102;64933;-85
2021/01/31 09:53:50;;;;;;;74.13;34.53;;;;;;;-1.09;75.80;98146.52;124026;1102;64982;-85
2021/01/31 09:56:36;;;;;;;66.63;30.57;;;;;;;-1.04;74.24;98139.33;124019;1099;64943;-84
2021/01/31 09:59:10;;;;;;;84.77;35.10;;;;;;;-0.93;75.19;98137.14;124037;1102;64886;-84
2021/01/31 10:01:37;;;;;;;87.23;36.97;;;;;;;-0.80;75.32;98144.50;123977;1099;65353;-83
2021/01/31 10:07:46;;;;;;;87.33;37.20;;;;;;;-0.58;74.39;98134.81;124924;1099;64959;-84
2021/01/31 10:10:35;;;;;;;109.33;43.03;;;;;;;-0.41;74.39;98145.46;124232;1102;64969;-85
2021/01/31 10:13:22;;;;;;;94.13;39.47;;;;;;;-0.32;74.37;98142.46;124066;1099;64860;-88
2021/01/31 10:16:01;;;;;;;101.75;43.05;;;;;;;-0.21;75.11;98144.60;124342;1099;65311;-85
2021/01/31 10:18:40;;;;;;;113.43;44.83;;;;;;;-0.20;75.05;98141.05;124068;1102;64995;-85
2021/01/31 10:21:24;;;;;;;123.47;49.80;;;;;;;-0.07;74.24;98138.75;124071;1099;63861;-84
2021/01/31 10:24:05;;;;;;;101.95;44.00;;;;;;;0.03;74.42;98137.44;123951;1099;64976;-84
2021/01/31 10:26:32;;;;;;;132.97;53.30;;;;;;;0.04;74.08;98136.51;124038;1099;64954;-86
2021/01/31 10:29:07;;;;;;;129.63;53.40;;;;;;;0.12;74.38;98134.39;123949;1099;65240;-86
2021/01/31 10:31:40;;;;;;;160.50;63.00;;;;;;;0.28;74.84;98128.47;123971;1099;65023;-85
2021/01/31 10:34:10;;;;;;;145.80;57.17;;;;;;;0.38;74.57;98129.73;123851;1102;64896;-86
2021/01/31 10:36:42;;;;;;;148.40;56.30;;;;;;;0.39;73.98;98136.72;123891;1099;65032;-84
2021/01/31 10:39:08;;;;;;;146.37;55.93;;;;;;;0.45;74.79;98125.93;123885;1099;65001;-89
2021/01/31 10:41:37;;;;;;;160.97;60.50;;;;;;;0.53;73.85;98129.05;124101;1099;64895;-86
2021/01/31 10:44:07;;;;;;;159.23;59.33;;;;;;;0.58;74.68;98120.95;124121;1099;64908;-85
2021/01/31 10:46:35;;;;;;;133.57;54.80;;;;;;;0.60;74.38;98129.61;124109;1099;64971;-86
2021/01/31 10:49:03;;;;;;;152.20;59.30;;;;;;;0.65;74.64;98128.47;123954;1099;64927;-84
2021/01/31 10:51:32;;;;;;;120.00;49.93;;;;;;;0.69;74.68;98130.02;123878;1099;64924;-88
2021/01/31 10:54:00;;;;;;;85.67;36.27;;;;;;;0.81;73.96;98134.70;123974;1099;65337;-85
2021/01/31 10:56:27;;;;;;;57.50;25.80;;;;;;;0.99;74.28;98132.13;123908;1099;64946;-88
2021/01/31 10:58:54;;;;;;;71.70;30.60;;;;;;;1.17;74.10;98127.75;123897;1099;64911;-87
2021/01/31 11:01:21;;;;;;;81.20;34.55;;;;;;;1.23;73.99;98127.45;124148;1099;65001;-86
2021/01/31 11:03:49;;;;;;;71.77;30.93;;;;;;;1.30;74.59;98121.81;124093;1098;65001;-86
2021/01/31 11:06:17;;;;;;;64.57;26.63;;;;;;;1.34;74.23;98122.52;123864;1102;64891;-85
2021/01/31 11:08:43;;;;;;;69.20;30.80;;;;;;;1.34;74.29;98118.11;123956;1099;65349;-85
2021/01/31 11:11:09;;;;;;;66.60;28.37;;;;;;;1.37;74.10;98124.14;123912;1099;64891;-87
2021/01/31 11:13:36;;;;;;;43.83;17.87;;;;;;;1.48;73.98;98120.05;123946;1102;64959;-83
2021/01/31 11:16:03;;;;;;;63.17;27.77;;;;;;;1.55;74.18;98117.95;123900;1102;64962;-84
2021/01/31 11:18:30;;;;;;;64.27;28.63;;;;;;;1.57;73.98;98118.72;124244;1099;64971;-87
2021/01/31 11:20:56;;;;;;;77.03;33.93;;;;;;;1.63;74.37;98111.36;123915;1102;64997;-86
2021/01/31 11:23:24;;;;;;;83.50;37.40;;;;;;;1.68;73.75;98108.50;124059;1101;64879;-86
2021/01/31 11:25:50;;;;;;;96.80;39.43;;;;;;;1.66;73.76;98105.11;123970;1099;64988;-88
2021/01/31 11:28:19;;;;;;;101.63;44.90;;;;;;;1.68;73.53;98100.61;124425;1099;64895;-86
2021/01/31 11:30:47;;;;;;;96.80;43.65;;;;;;;1.68;73.28;98100.61;123877;1099;64925;-84
2021/01/31 11:33:14;;;;;;;100.50;44.27;;;;;;;1.63;73.53;98095.57;124118;1099;64949;-82
2021/01/31 11:35:42;;;;;;;102.93;45.87;;;;;;;1.59;73.19;98090.53;123975;1099;64985;-85
2021/01/31 11:38:09;;;;;;;90.97;40.80;;;;;;;1.51;73.21;98098.83;124170;1099;65005;-86
2021/01/31 11:40:36;;;;;;;88.93;39.73;;;;;;;1.53;73.23;98098.77;124367;1099;64972;-85
2021/01/31 11:43:02;;;;;;;97.30;40.33;;;;;;;1.55;73.92;98107.43;124262;1099;64888;-84
2021/01/31 11:45:29;;;;;;;85.63;39.03;;;;;;;1.59;73.72;98098.43;123964;1099;65078;-89
2021/01/31 11:47:56;;;;;;;84.10;38.67;;;;;;;1.65;73.44;98094.64;123984;1102;65336;-84